Data for 12/08/2013

Time Sea-Level Adjusted Pressure Absolute Pressure Temperature Relative Humidity Dew Point   
(mb) (inHg) (mb) (inHg) (C) (F) (%) (C) (F)
00:05 1015 29.97 844 24.92 -27.4 -17.3 70 -31.3 -24.4
00:10 1015 29.97 844 24.92 -27.6 -17.8 70 -31.5 -24.8
00:15 1015 29.97 844 24.92 -28.2 -18.8 69 -32.2 -26
00:20 1015 29.97 844 24.92 -28.5 -19.3 72 -32.1 -25.8
00:25 1015 29.97 844 24.92 -28.3 -18.9 72 -31.9 -25.3
00:30 1015 29.97 844 24.92 -28.2 -18.7 72 -31.7 -25.1
00:35 1015 29.97 844 24.92 -28 -18.3 72 -31.6 -24.8
00:40 1015 29.97 844 24.92 -28 -18.3 71 -31.7 -25.1
00:45 1015 29.97 844 24.92 -28.1 -18.6 71 -31.8 -25.2
00:50 1015 29.97 844 24.92 -28.3 -18.9 72 -31.9 -25.4
00:55 1015 29.97 844 24.92 -28.2 -18.7 71 -31.9 -25.5
01:00 1015 29.97 844 24.92 -28.1 -18.5 72 -31.7 -25
01:05 1015 29.97 844 24.92 -28 -18.4 72 -31.7 -25
01:10 1015 29.97 844 24.92 -27.9 -18.3 71 -31.8 -25.2
01:15 1015 29.97 844 24.92 -28.1 -18.6 72 -31.8 -25.2
01:20 1015 29.97 844 24.92 -28.4 -19.1 72 -31.9 -25.4
01:25 1015 29.97 844 24.92 -28.3 -19 72 -31.9 -25.3
01:30 1015 29.97 844 24.92 -28.2 -18.8 72 -31.8 -25.2
01:35 1015 29.97 844 24.92 -28.2 -18.7 72 -31.7 -25.1
01:40 1015 29.97 844 24.92 -28.2 -18.7 73 -31.7 -25
01:45 1015 29.97 844 24.92 -28 -18.5 72 -31.7 -25
01:50 1015 29.97 844 24.92 -28.1 -18.5 72 -31.6 -25
01:55 1015 29.97 844 24.92 -28 -18.3 72 -31.6 -24.8
02:00 1015 29.97 844 24.92 -27.8 -18 73 -31.3 -24.3
02:05 1015 29.97 844 24.92 -27.7 -17.8 72 -31.3 -24.3
02:10 1015 29.97 844 24.92 -27.4 -17.3 72 -31 -23.9
02:15 1015 29.97 844 24.92 -27.1 -16.8 72 -30.7 -23.3
02:20 1015 29.97 844 24.92 -27.2 -17 75 -30.4 -22.8
02:25 1015 29.97 844 24.92 -27.1 -16.8 76 -30.1 -22.2
02:30 1015 29.97 844 24.92 -27.3 -17.1 74 -30.6 -23.1
02:35 1015 29.97 844 24.92 -27.5 -17.4 72 -31 -23.8
02:40 1015 29.97 844 24.92 -27.8 -18 71 -31.4 -24.6
02:45 1015 29.97 844 24.92 -28 -18.4 77 -30.9 -23.7
02:50 1015 29.97 844 24.92 -27.7 -17.9 74 -31 -23.9
02:55 1015 29.97 844 24.92 -27.8 -18 73 -31.2 -24.1
03:00 1015 29.97 844 24.92 -27.9 -18.1 72 -31.5 -24.7
03:05 1015 29.97 844 24.92 -27.7 -17.8 71 -31.4 -24.5
03:10 1015 29.97 844 24.92 -27.9 -18.2 74 -31.2 -24.1
03:15 1015 29.97 844 24.92 -28 -18.5 76 -31.1 -23.9
03:20 1015 29.97 844 24.92 -27.6 -17.7 76 -30.6 -23.1
03:25 1015 29.97 844 24.92 -27.4 -17.4 74 -30.7 -23.3
03:30 1015 29.97 844 24.92 -27.4 -17.4 74 -30.7 -23.3
03:35 1015 29.97 844 24.92 -27.2 -17 72 -30.8 -23.5
03:40 1015 29.97 844 24.92 -27.2 -17 71 -31 -23.9
03:45 1015 29.97 844 24.92 -27.5 -17.5 71 -31.2 -24.1
03:50 1015 29.97 844 24.92 -27.9 -18.1 72 -31.5 -24.7
03:55 1015 29.97 844 24.92 -28.1 -18.6 71 -31.8 -25.3
04:00 1015 29.97 844 24.92 -28.4 -19.1 73 -31.9 -25.3
04:05 1015 29.97 844 24.92 -28.4 -19 71 -32 -25.6
04:10 1015 29.97 844 24.92 -28.6 -19.4 71 -32.2 -26
04:15 1015 29.97 844 24.92 -28.3 -19 72 -32 -25.5
04:20 1015 29.97 844 24.92 -27.8 -18.1 72 -31.4 -24.6
04:25 1015 29.97 844 24.92 -27.7 -17.9 72 -31.3 -24.3
04:30 1015 29.97 844 24.92 -27.6 -17.6 71 -31.3 -24.3
04:35 1015 29.97 844 24.92 -27.4 -17.2 69 -31.4 -24.4
04:40 1015 29.97 844 24.92 -27.6 -17.7 69 -31.6 -24.9
04:45 1015 29.97 844 24.92 -28 -18.4 71 -31.8 -25.2
04:50 1015 29.97 844 24.92 -27.9 -18.2 71 -31.6 -24.9
04:55 1015 29.97 844 24.92 -27.8 -18.1 71 -31.5 -24.7
05:00 1015 29.97 844 24.92 -27.9 -18.2 72 -31.6 -24.8
05:05 1015 29.97 844 24.92 -27.7 -17.9 73 -31.2 -24.2
05:10 1015 29.97 844 24.92 -27.4 -17.3 71 -31.1 -24
05:15 1015 29.97 844 24.92 -27.3 -17.1 71 -31.1 -23.9
05:20 1015 29.97 844 24.92 -27.4 -17.2 71 -31.1 -23.9
05:25 1015 29.97 844 24.92 -27.7 -17.8 71 -31.4 -24.6
05:30 1015 29.97 844 24.92 -28 -18.5 70 -31.9 -25.4
05:35 1015 29.97 844 24.92 -28.4 -19.2 73 -31.9 -25.4
05:40 1015 29.97 844 24.92 -28.3 -18.9 75 -31.5 -24.7
05:45 1015 29.97 844 24.92 -27.8 -18 75 -31 -23.8
05:50 1015 29.97 844 24.92 -27.4 -17.3 73 -30.9 -23.6
05:55 1015 29.97 844 24.92 -27 -16.6 71 -30.8 -23.4
06:00 1015 29.97 844 24.92 -26.9 -16.3 71 -30.7 -23.2
06:05 1015 29.97 844 24.92 -27 -16.6 71 -30.8 -23.5
06:10 1015 29.97 844 24.92 -27.4 -17.3 71 -31.2 -24.1
06:15 1015 29.97 844 24.92 -27.7 -17.9 73 -31.2 -24.1
06:20 1015 29.97 844 24.92 -27.7 -17.8 76 -30.6 -23.1
06:25 1015 29.97 844 24.92 -27.5 -17.4 75 -30.7 -23.2
06:30 1015 29.97 844 24.92 -27.4 -17.2 75 -30.6 -23.1
06:35 1015 29.97 844 24.92 -27 -16.7 76 -30.1 -22.2
06:40 1015 29.97 844 24.92 -26.7 -16 73 -30.1 -22.2
06:45 1015 29.97 844 24.92 -26.6 -15.8 73 -30 -22
06:50 1015 29.97 844 24.92 -26.5 -15.8 74 -29.9 -21.8
06:55 1014 29.94 844 24.92 -26.4 -15.5 74 -29.7 -21.5
07:00 1014 29.94 844 24.92 -26.4 -15.5 74 -29.8 -21.6
07:05 1014 29.94 844 24.92 -26.5 -15.7 74 -29.9 -21.8
07:10 1015 29.97 844 24.92 -26.7 -16 74 -30.1 -22.1
07:15 1015 29.97 844 24.92 -26.7 -16.1 75 -29.9 -21.8
07:20 1015 29.97 844 24.92 -26.8 -16.2 74 -30.1 -22.2
07:25 1015 29.97 844 24.92 -26.8 -16.3 74 -30.2 -22.4
07:30 1015 29.97 844 24.92 -26.7 -16.1 74 -30 -22.1
07:35 1015 29.97 844 24.92 -26.5 -15.7 73 -30 -22
07:40 1015 29.97 844 24.92 -26.3 -15.4 73 -29.8 -21.7
07:45 1015 29.97 844 24.92 -26.2 -15.2 72 -29.9 -21.7
07:50 1015 29.97 844 24.92 -26.4 -15.4 72 -30.1 -22.1
07:55 1015 29.97 844 24.92 -26.4 -15.6 73 -30 -22
08:00 1015 29.97 844 24.92 -26.5 -15.8 73 -30 -22
08:05 1015 29.97 844 24.92 -26.5 -15.7 75 -29.7 -21.5
08:10 1015 29.97 844 24.92 -26.1 -15 74 -29.5 -21
08:15 1015 29.97 844 24.92 -25.9 -14.6 72 -29.6 -21.2
08:20 1015 29.97 845 24.95 -25.7 -14.2 72 -29.4 -20.9
08:25 1015 29.97 845 24.95 -25.5 -13.8 72 -29.2 -20.6
08:30 1015 29.97 845 24.95 -25.2 -13.3 71 -29.1 -20.3
08:35 1015 29.97 845 24.95 -25.2 -13.3 71 -29 -20.1
08:40 1015 29.97 845 24.95 -25.2 -13.4 71 -29.1 -20.4
08:45 1015 29.97 845 24.95 -25.4 -13.6 72 -29 -20.2
08:50 1015 29.97 845 24.95 -25.4 -13.8 72 -29 -20.3
08:55 1015 29.97 845 24.95 -25.5 -14 74 -28.9 -20
09:00 1015 29.97 845 24.95 -25.8 -14.5 75 -29.1 -20.4
09:05 1015 29.97 845 24.95 -26 -14.9 76 -29.2 -20.5
09:10 1016 30 845 24.95 -26.1 -15 76 -29.2 -20.5
09:15 1016 30 845 24.95 -26.1 -14.9 75 -29.2 -20.6
09:20 1016 30 845 24.95 -26.1 -15 75 -29.3 -20.7
09:25 1016 30 845 24.95 -26 -14.7 75 -29.1 -20.5
09:30 1016 30 845 24.95 -25.8 -14.4 75 -29 -20.1
09:35 1016 30 845 24.95 -25.5 -14 74 -28.9 -19.9
09:40 1016 30 845 24.95 -25.4 -13.7 73 -28.9 -19.9
09:45 1016 30 845 24.95 -25.4 -13.7 74 -28.8 -19.8
09:50 1016 30 845 24.95 -25.3 -13.6 73 -28.8 -19.9
09:55 1016 30 845 24.95 -25.1 -13.2 72 -28.7 -19.7
10:00 1016 30 845 24.95 -25 -13 72 -28.7 -19.6
10:05 1016 30 845 24.95 -24.9 -12.7 71 -28.7 -19.6
10:10 1016 30 845 24.95 -24.6 -12.2 72 -28.2 -18.8
10:15 1016 30 845 24.95 -24.2 -11.6 73 -27.8 -18.1
10:20 1016 30 845 24.95 -23.9 -11 71 -27.8 -18
10:25 1016 30 845 24.95 -23.8 -10.9 70 -27.8 -18.1
10:30 1016 30 845 24.95 -23.8 -10.9 71 -27.8 -18
10:35 1016 30 845 24.95 -23.9 -11 70 -27.9 -18.2
10:40 1016 30 846 24.98 -23.8 -10.8 70 -27.8 -18
10:45 1016 30 846 24.98 -23.8 -10.8 71 -27.7 -17.8
10:50 1016 30 846 24.98 -23.6 -10.5 68 -27.9 -18.3
10:55 1017 30.03 846 24.98 -23.5 -10.3 68 -27.8 -18.1
11:00 1017 30.03 846 24.98 -23.4 -10.1 69 -27.6 -17.6
11:05 1017 30.03 846 24.98 -23.3 -10 71 -27.2 -17
11:10 1017 30.03 846 24.98 -23 -9.5 69 -27.3 -17.1
11:15 1017 30.03 846 24.98 -22.8 -9 68 -27.2 -17
11:20 1017 30.03 846 24.98 -22.6 -8.7 67 -27.1 -16.8
11:25 1017 30.03 846 24.98 -22.5 -8.4 68 -26.8 -16.3
11:30 1017 30.03 846 24.98 -22.2 -7.9 67 -26.8 -16.3
11:35 1017 30.03 846 24.98 -22 -7.5 66 -26.8 -16.2
11:40 1017 30.03 846 24.98 -21.7 -7 65 -26.7 -16
11:45 1017 30.03 846 24.98 -21.4 -6.5 65 -26.3 -15.3
11:50 1017 30.03 846 24.98 -21.2 -6.1 64 -26.3 -15.4
11:55 1017 30.03 846 24.98 -21.1 -6 63 -26.4 -15.5
12:00 1017 30.03 846 24.98 -21.1 -5.9 63 -26.4 -15.5
12:05 1017 30.03 846 24.98 -21.1 -5.9 63 -26.3 -15.4
12:10 1017 30.03 846 24.98 -21.3 -6.3 64 -26.4 -15.6
12:15 1017 30.03 846 24.98 -21.2 -6.1 65 -26.2 -15.1
12:20 1017 30.03 846 24.98 -20.7 -5.3 63 -26 -14.8
12:25 1017 30.03 846 24.98 -20.4 -4.6 62 -25.8 -14.5
12:30 1017 30.03 846 24.98 -20.3 -4.5 62 -25.7 -14.3
12:35 1017 30.03 846 24.98 -20.3 -4.5 63 -25.6 -14.1
12:40 1017 30.03 846 24.98 -20.4 -4.8 63 -25.8 -14.4
12:45 1017 30.03 846 24.98 -20.3 -4.6 63 -25.6 -14.1
12:50 1017 30.03 846 24.98 -20.2 -4.4 63 -25.6 -14
12:55 1017 30.03 846 24.98 -20.3 -4.5 63 -25.7 -14.2
13:00 1017 30.03 846 24.98 -20.6 -5.1 63 -26 -14.8
13:05 1017 30.03 846 24.98 -20.9 -5.5 65 -25.8 -14.4
13:10 1017 30.03 846 24.98 -20.7 -5.3 66 -25.6 -14
13:15 1017 30.03 846 24.98 -20.7 -5.3 66 -25.6 -14
13:20 1017 30.03 846 24.98 -20.7 -5.2 65 -25.6 -14.1
13:25 1017 30.03 846 24.98 -21.1 -5.9 67 -25.6 -14.1
13:30 1017 30.03 846 24.98 -21 -5.8 66 -25.7 -14.3
13:35 1017 30.03 846 24.98 -21 -5.7 69 -25.3 -13.6
13:40 1017 30.03 846 24.98 -20.5 -4.8 67 -25.2 -13.3
13:45 1017 30.03 846 24.98 -20.2 -4.3 67 -24.8 -12.7
13:50 1017 30.03 846 24.98 -20 -4 66 -24.8 -12.6
13:55 1017 30.03 846 24.98 -19.9 -3.8 68 -24.4 -12
14:00 1017 30.03 846 24.98 -19.7 -3.4 67 -24.3 -11.7
14:05 1017 30.03 846 24.98 -19.5 -3.2 67 -24.2 -11.6
14:10 1017 30.03 846 24.98 -19.9 -3.7 68 -24.3 -11.8
14:15 1017 30.03 846 24.98 -20.3 -4.6 69 -24.6 -12.3
14:20 1017 30.03 846 24.98 -20.2 -4.4 71 -24.1 -11.4
14:25 1017 30.03 846 24.98 -19.9 -3.8 70 -24.1 -11.3
14:30 1017 30.03 846 24.98 -20.2 -4.3 70 -24.4 -11.9
14:35 1017 30.03 846 24.98 -20.3 -4.6 73 -23.9 -11.1
14:40 1017 30.03 846 24.98 -19.8 -3.6 71 -23.9 -10.9
14:45 1017 30.03 846 24.98 -19.9 -3.8 71 -23.9 -11.1
14:50 1017 30.03 846 24.98 -20 -4.1 71 -24 -11.3
14:55 1017 30.03 847 25.01 -20.1 -4.3 72 -23.9 -11
15:00 1017 30.03 847 25.01 -20.2 -4.4 72 -24 -11.3
15:05 1017 30.03 846 24.98 -20.6 -5.1 73 -24.2 -11.6
15:10 1017 30.03 847 25.01 -20.6 -5.2 73 -24.3 -11.7
15:15 1017 30.03 846 24.98 -20.7 -5.2 74 -24.2 -11.5
15:20 1017 30.03 847 25.01 -20.5 -4.9 74 -24 -11.2
15:25 1017 30.03 847 25.01 -20.6 -5 74 -24.1 -11.3
15:30 1017 30.03 847 25.01 -20.4 -4.7 75 -23.7 -10.7
15:35 1017 30.03 847 25.01 -19.9 -3.9 74 -23.4 -10.1
15:40 1017 30.03 847 25.01 -19.5 -3.2 73 -23.3 -9.9
15:45 1017 30.03 847 25.01 -19.3 -2.7 73 -22.9 -9.3
15:50 1018 30.06 847 25.01 -19.1 -2.3 72 -22.9 -9.2
15:55 1018 30.06 847 25.01 -19 -2.2 72 -22.9 -9.1
16:00 1018 30.06 847 25.01 -19 -2.2 72 -22.8 -9.1
16:05 1018 30.06 847 25.01 -19.1 -2.4 74 -22.6 -8.7
16:10 1018 30.06 847 25.01 -19 -2.3 74 -22.6 -8.7
16:15 1018 30.06 847 25.01 -19.1 -2.3 75 -22.4 -8.3
16:20 1018 30.06 847 25.01 -18.9 -2.1 75 -22.3 -8.2
16:25 1018 30.06 847 25.01 -18.9 -2.1 75 -22.3 -8.1
16:30 1018 30.06 847 25.01 -18.9 -2 75 -22.2 -8
16:35 1018 30.06 847 25.01 -18.9 -2.1 75 -22.3 -8.2
16:40 1018 30.06 847 25.01 -19 -2.3 75 -22.4 -8.2
16:45 1018 30.06 847 25.01 -19 -2.2 76 -22.3 -8.1
16:50 1018 30.06 847 25.01 -19 -2.2 76 -22.2 -8
16:55 1018 30.06 848 25.04 -19 -2.2 77 -22.1 -7.9
17:00 1018 30.06 848 25.04 -19 -2.2 77 -22.1 -7.9
17:05 1018 30.06 848 25.04 -19 -2.2 77 -22.2 -7.9
17:10 1018 30.06 848 25.04 -19.1 -2.4 78 -22 -7.7
17:15 1018 30.06 848 25.04 -19 -2.3 77 -22.1 -7.8
17:20 1019 30.09 848 25.04 -19.1 -2.4 77 -22.3 -8.1
17:25 1019 30.09 848 25.04 -19.3 -2.7 77 -22.3 -8.1
17:30 1019 30.09 848 25.04 -19.3 -2.8 78 -22.3 -8.1
17:35 1019 30.09 848 25.04 -19.4 -2.9 77 -22.4 -8.4
17:40 1019 30.09 848 25.04 -19.6 -3.3 79 -22.4 -8.3
17:45 1019 30.09 848 25.04 -19.7 -3.4 79 -22.4 -8.4
17:50 1019 30.09 848 25.04 -19.7 -3.5 79 -22.5 -8.4
17:55 1019 30.09 848 25.04 -19.8 -3.6 79 -22.5 -8.5
18:00 1019 30.09 848 25.04 -19.7 -3.5 80 -22.4 -8.3
18:05 1019 30.09 848 25.04 -19.7 -3.4 80 -22.3 -8.2
18:10 1019 30.09 848 25.04 -19.6 -3.3 80 -22.3 -8.1
18:15 1019 30.09 848 25.04 -19.6 -3.2 79 -22.3 -8.1
18:20 1019 30.09 848 25.04 -19.6 -3.4 79 -22.3 -8.2
18:25 1019 30.09 848 25.04 -19.7 -3.5 79 -22.5 -8.5
18:30 1019 30.09 848 25.04 -19.9 -3.8 79 -22.7 -8.8
18:35 1019 30.09 848 25.04 -20.1 -4.1 79 -22.9 -9.2
18:40 1019 30.09 848 25.04 -20.4 -4.6 79 -23.1 -9.6
18:45 1019 30.09 848 25.04 -20.9 -5.5 80 -23.4 -10.1
18:50 1019 30.09 848 25.04 -21.1 -5.9 81 -23.6 -10.4
18:55 1019 30.09 848 25.04 -21.1 -6.1 81 -23.6 -10.5
19:00 1019 30.09 848 25.04 -21.2 -6.2 81 -23.7 -10.6
19:05 1019 30.09 848 25.04 -21.2 -6.1 80 -23.7 -10.6
19:10 1019 30.09 848 25.04 -21.2 -6.1 81 -23.7 -10.6
19:15 1019 30.09 848 25.04 -21.2 -6.1 81 -23.6 -10.5
19:20 1019 30.09 849 25.07 -21.2 -6.1 81 -23.6 -10.5
19:25 1019 30.09 849 25.07 -21.2 -6.1 81 -23.7 -10.6
19:30 1019 30.09 849 25.07 -21.2 -6.1 81 -23.6 -10.5
19:35 1019 30.09 849 25.07 -21.2 -6.1 81 -23.6 -10.5
19:40 1020 30.12 849 25.07 -21.2 -6.1 81 -23.6 -10.6
19:45 1020 30.12 849 25.07 -21.2 -6.2 81 -23.7 -10.6
19:50 1020 30.12 849 25.07 -21.2 -6.1 81 -23.7 -10.6
19:55 1020 30.12 849 25.07 -21.1 -6 81 -23.6 -10.5
20:00 1020 30.12 849 25.07 -21.1 -5.9 81 -23.5 -10.3
20:05 1020 30.12 849 25.07 -21 -5.9 81 -23.4 -10.2
20:10 1020 30.12 849 25.07 -21.3 -6.3 82 -23.6 -10.5
20:15 1020 30.12 849 25.07 -21.4 -6.4 81 -23.8 -10.9
20:20 1020 30.12 849 25.07 -21.5 -6.7 80 -24.1 -11.3
20:25 1020 30.12 849 25.07 -21.7 -7.1 80 -24.2 -11.6
20:30 1020 30.12 849 25.07 -21.7 -7 81 -24.1 -11.4
20:35 1020 30.12 849 25.07 -21.5 -6.7 81 -24 -11.2
20:40 1020 30.12 849 25.07 -21.2 -6.2 81 -23.7 -10.6
20:45 1020 30.12 849 25.07 -21.2 -6.1 82 -23.5 -10.3
20:50 1020 30.12 849 25.07 -21 -5.8 80 -23.5 -10.4
20:55 1020 30.12 849 25.07 -21 -5.8 79 -23.7 -10.7
21:00 1020 30.12 849 25.07 -21.2 -6.1 79 -24 -11.1
21:05 1020 30.12 849 25.07 -21.4 -6.5 80 -24.1 -11.3
21:10 1020 30.12 849 25.07 -21.6 -6.8 79 -24.3 -11.8
21:15 1020 30.12 849 25.07 -21.7 -7.1 79 -24.5 -12
21:20 1020 30.12 849 25.07 -21.9 -7.4 79 -24.5 -12.2
21:25 1020 30.12 849 25.07 -22 -7.7 80 -24.7 -12.4
21:30 1020 30.12 849 25.07 -22.1 -7.8 80 -24.7 -12.4
21:35 1020 30.12 849 25.07 -22.1 -7.9 81 -24.6 -12.2
21:40 1020 30.12 849 25.07 -22.1 -7.8 81 -24.6 -12.3
21:45 1020 30.12 849 25.07 -22.3 -8.2 80 -24.9 -12.9
21:50 1020 30.12 849 25.07 -22.4 -8.4 82 -24.7 -12.5
21:55 1020 30.12 849 25.07 -22.3 -8.1 79 -24.9 -12.9
22:00 1020 30.12 849 25.07 -22.3 -8.1 81 -24.8 -12.6
22:05 1020 30.12 849 25.07 -22.2 -8 81 -24.7 -12.4
22:10 1020 30.12 849 25.07 -22.1 -7.8 82 -24.4 -11.9
22:15 1020 30.12 849 25.07 -22.2 -7.9 79 -24.9 -12.9
22:20 1020 30.12 849 25.07 -22.7 -8.8 82 -25 -13
22:25 1020 30.12 849 25.07 -22.7 -8.8 81 -25.1 -13.2
22:30 1020 30.12 849 25.07 -22.6 -8.7 82 -24.9 -12.8
22:35 1020 30.12 849 25.07 -22.3 -8.2 83 -24.5 -12
22:40 1020 30.12 849 25.07 -21.9 -7.5 82 -24.2 -11.5
22:45 1020 30.12 849 25.07 -21.7 -7.1 80 -24.3 -11.8
22:50 1020 30.12 849 25.07 -22.2 -8 79 -24.9 -12.8
22:55 1020 30.12 849 25.07 -22.3 -8.1 82 -24.6 -12.3
23:00 1020 30.12 849 25.07 -22.1 -7.7 80 -24.6 -12.3
23:05 1020 30.12 849 25.07 -22.3 -8.1 77 -25.3 -13.5
23:10 1020 30.12 849 25.07 -22.6 -8.7 78 -25.5 -13.8
23:15 1020 30.12 849 25.07 -22.5 -8.6 78 -25.3 -13.6
23:20 1020 30.12 849 25.07 -22.4 -8.3 80 -24.9 -12.8
23:25 1020 30.12 849 25.07 -22 -7.5 80 -24.6 -12.3
23:30 1020 30.12 849 25.07 -22 -7.6 76 -25.2 -13.3
23:35 1020 30.12 849 25.07 -22.4 -8.3 76 -25.5 -14
23:40 1020 30.12 849 25.07 -22.5 -8.5 78 -25.4 -13.7
23:45 1020 30.12 849 25.07 -22.2 -8 75 -25.5 -13.8
23:50 1020 30.12 849 25.07 -22.5 -8.5 76 -25.6 -14.1
23:55 1020 30.12 849 25.07 -22.9 -9.2 79 -25.6 -14
24:00 1020 30.12 849 25.07 -22.9 -9.2 81 -25.3 -13.5